Time;durP1;ratioP1;P1;durP2;ratioP2;P2;SDS_P1;SDS_P2;PMS_P1;PMS_P2;Temp;Humidity;BMP_temperature;BMP_pressure;BME280_temperature;BME280_humidity;BME280_pressure;Samples;Min_cycle;Max_cycle;Signal;HPM_P1;HPM_P2
2023/09/08 00:02:08;;;;;;;7.30;6.60;;;21.10;99.90;;;;;;4943980;28;20229;-77
2023/09/08 00:04:34;;;;;;;7.87;7.00;;;21.10;99.90;;;;;;4947052;28;20222;-75
2023/09/08 00:07:00;;;;;;;7.03;6.33;;;21.00;99.90;;;;;;4948956;28;20300;-77
2023/09/08 00:09:26;;;;;;;7.00;6.27;;;21.00;99.90;;;;;;4947796;28;20304;-77
2023/09/08 00:11:52;;;;;;;6.93;6.23;;;21.00;99.90;;;;;;4959392;28;20495;-77
2023/09/08 00:14:18;;;;;;;7.10;6.40;;;21.00;99.90;;;;;;4945845;28;20229;-76
2023/09/08 00:16:44;;;;;;;8.93;6.93;;;21.00;99.90;;;;;;4947353;28;20474;-76
2023/09/08 00:19:10;;;;;;;6.87;6.17;;;21.00;99.90;;;;;;4933728;28;20226;-77
2023/09/08 00:21:36;;;;;;;7.87;7.07;;;20.80;99.90;;;;;;4963644;28;20233;-75
2023/09/08 00:24:03;;;;;;;7.73;6.23;;;20.80;99.90;;;;;;4963542;28;20477;-77
2023/09/08 00:26:29;;;;;;;9.20;7.20;;;20.90;99.90;;;;;;4960061;28;20481;-76
2023/09/08 00:28:55;;;;;;;7.80;6.37;;;20.80;99.90;;;;;;4957916;28;20554;-76
2023/09/08 00:31:21;;;;;;;10.93;6.87;;;20.80;99.90;;;;;;4949984;28;20379;-77
2023/09/08 00:33:46;;;;;;;9.53;7.73;;;20.80;99.90;;;;;;4954960;28;20264;-76
2023/09/08 00:36:12;;;;;;;8.87;6.00;;;20.80;99.90;;;;;;4943294;28;20234;-76
2023/09/08 00:38:38;;;;;;;7.43;6.73;;;20.80;99.90;;;;;;4953220;28;20223;-76
2023/09/08 00:41:07;;;;;;;6.90;6.20;;;20.80;99.90;;;;;;4947497;28;20477;-76
2023/09/08 00:43:33;;;;;;;7.33;6.57;;;20.80;99.90;;;;;;4943460;28;20229;-77
2023/09/08 00:46:00;;;;;;;7.00;6.30;;;20.70;99.90;;;;;;4946803;28;20968;-77
2023/09/08 00:48:26;;;;;;;6.77;6.07;;;20.70;99.90;;;;;;4953184;28;20222;-77
2023/09/08 00:50:52;;;;;;;6.70;5.57;;;20.60;99.90;;;;;;4950154;28;20464;-77
2023/09/08 00:53:18;;;;;;;6.10;5.50;;;20.50;99.90;;;;;;4946086;28;20645;-76
2023/09/08 00:55:44;;;;;;;7.70;6.90;;;20.40;99.90;;;;;;4931296;28;20349;-77
2023/09/08 00:58:11;;;;;;;7.43;6.10;;;20.40;99.90;;;;;;4944248;28;20296;-77
2023/09/08 01:00:37;;;;;;;7.03;5.63;;;20.40;99.90;;;;;;4946111;28;20509;-76
2023/09/08 01:03:03;;;;;;;6.60;5.93;;;20.50;99.90;;;;;;4947719;28;20470;-75
2023/09/08 01:05:29;;;;;;;7.30;6.60;;;20.40;99.90;;;;;;4948151;28;20234;-75
2023/09/08 01:07:57;;;;;;;6.50;5.93;;;20.40;99.90;;;;;;4949242;28;20501;-74
2023/09/08 01:10:23;;;;;;;7.13;6.13;;;20.40;99.90;;;;;;4962827;28;20502;-77
2023/09/08 01:12:49;;;;;;;8.50;5.70;;;20.50;99.90;;;;;;4960335;28;20482;-76
2023/09/08 01:15:15;;;;;;;7.00;6.07;;;20.40;99.90;;;;;;4945779;28;20604;-77
2023/09/08 01:17:40;;;;;;;8.27;6.03;;;20.40;99.90;;;;;;4963438;28;20226;-75
2023/09/08 01:20:21;;;;;;;9.20;6.70;;;20.40;99.90;;;;;;4962434;28;20277;-76
2023/09/08 01:23:02;;;;;;;9.43;6.33;;;20.40;99.90;;;;;;4952307;28;20231;-76
2023/09/08 01:25:29;;;;;;;7.43;6.73;;;20.30;99.90;;;;;;4949341;28;20473;-77
2023/09/08 01:27:58;;;;;;;6.87;5.90;;;20.30;99.90;;;;;;4933367;28;20484;-76
2023/09/08 01:30:27;;;;;;;6.50;5.87;;;20.30;99.90;;;;;;4951450;28;20473;-76
2023/09/08 01:32:55;;;;;;;10.37;6.63;;;20.30;99.90;;;;;;4965317;28;20470;-75
2023/09/08 01:35:21;;;;;;;6.70;6.00;;;20.20;99.90;;;;;;4932131;28;20995;-75
2023/09/08 01:37:48;;;;;;;6.03;5.53;;;20.20;99.90;;;;;;4950523;28;20487;-77
2023/09/08 01:40:15;;;;;;;7.00;5.60;;;20.10;99.90;;;;;;4945452;28;20537;-77
2023/09/08 01:42:41;;;;;;;7.00;6.33;;;20.10;99.90;;;;;;4965903;28;20466;-77
2023/09/08 01:45:07;;;;;;;13.23;6.07;;;20.00;99.90;;;;;;4947518;28;20238;-77
2023/09/08 01:47:34;;;;;;;6.70;5.90;;;19.90;99.90;;;;;;4949518;28;21016;-75
2023/09/08 01:50:00;;;;;;;5.80;5.13;;;19.90;99.90;;;;;;4949595;28;20560;-76
2023/09/08 01:52:26;;;;;;;6.10;5.50;;;19.90;99.90;;;;;;4952122;28;20474;-75
2023/09/08 01:54:51;;;;;;;12.00;6.00;;;19.80;99.90;;;;;;4951610;28;20593;-76
2023/09/08 01:57:18;;;;;;;6.27;5.67;;;19.70;99.90;;;;;;4950301;28;20711;-76
2023/09/08 01:59:45;;;;;;;7.73;5.20;;;19.80;99.90;;;;;;4955671;28;20478;-75
2023/09/08 02:02:11;;;;;;;7.33;6.60;;;19.80;99.90;;;;;;4949711;28;20522;-76
2023/09/08 02:04:37;;;;;;;6.83;5.70;;;19.80;99.90;;;;;;4965567;28;20229;-76
2023/09/08 02:07:04;;;;;;;6.90;5.77;;;19.80;99.90;;;;;;4951218;28;20497;-76
2023/09/08 02:09:32;;;;;;;8.33;5.80;;;19.80;99.90;;;;;;4949295;28;20462;-76
2023/09/08 02:11:57;;;;;;;7.40;5.60;;;19.70;99.90;;;;;;4953599;28;20593;-75
2023/09/08 02:14:23;;;;;;;12.03;6.83;;;19.70;99.90;;;;;;4947908;28;20462;-77
2023/09/08 02:16:49;;;;;;;7.90;6.33;;;19.70;99.90;;;;;;4964679;28;20234;-76
2023/09/08 02:19:14;;;;;;;8.63;6.60;;;19.60;99.90;;;;;;4950902;28;20254;-75
2023/09/08 02:21:41;;;;;;;6.10;5.20;;;19.50;99.90;;;;;;4965667;28;20268;-76
2023/09/08 02:24:07;;;;;;;7.53;6.20;;;19.40;99.90;;;;;;4950261;28;20486;-75
2023/09/08 02:26:33;;;;;;;7.80;5.63;;;19.40;99.90;;;;;;4959094;28;20231;-74
2023/09/08 02:29:00;;;;;;;6.53;5.77;;;19.40;99.90;;;;;;4949318;28;20226;-76
2023/09/08 02:31:29;;;;;;;8.40;6.17;;;19.40;99.90;;;;;;4962600;28;20469;-75
2023/09/08 02:33:55;;;;;;;6.10;5.00;;;19.40;99.90;;;;;;4948046;28;20525;-76
2023/09/08 02:36:27;;;;;;;8.27;5.73;;;19.50;99.90;;;;;;4949574;28;20492;-76
2023/09/08 02:38:56;;;;;;;6.30;5.27;;;19.40;99.90;;;;;;4946963;28;20320;-77
2023/09/08 02:41:22;;;;;;;6.40;5.03;;;19.30;99.90;;;;;;4948140;28;20466;-76
2023/09/08 02:43:48;;;;;;;6.70;5.47;;;19.30;99.90;;;;;;4945632;28;20463;-76
2023/09/08 02:46:14;;;;;;;7.10;5.50;;;19.30;99.90;;;;;;4964156;28;20499;-75
2023/09/08 02:48:40;;;;;;;9.40;5.97;;;19.30;99.90;;;;;;4957418;28;21009;-77
2023/09/08 02:51:06;;;;;;;6.10;5.50;;;19.30;99.90;;;;;;4938803;28;21306;-76
2023/09/08 02:53:32;;;;;;;7.30;5.70;;;19.30;99.90;;;;;;4944513;28;20478;-76
2023/09/08 02:55:59;;;;;;;5.70;4.83;;;19.30;99.90;;;;;;4965568;28;20250;-76
2023/09/08 02:58:25;;;;;;;8.63;5.40;;;19.40;99.90;;;;;;4956565;28;20587;-76
2023/09/08 03:00:52;;;;;;;6.40;5.10;;;19.40;99.90;;;;;;4964842;28;20470;-76
2023/09/08 03:03:18;;;;;;;7.73;6.00;;;19.40;99.90;;;;;;4948528;28;21026;-76
2023/09/08 03:05:44;;;;;;;7.60;5.53;;;19.40;99.90;;;;;;4930701;28;20480;-76
2023/09/08 03:08:11;;;;;;;6.13;5.60;;;19.40;99.90;;;;;;4929924;28;21073;-76
2023/09/08 03:10:36;;;;;;;7.43;5.00;;;19.40;99.90;;;;;;4961567;28;20466;-76
2023/09/08 03:13:06;;;;;;;7.60;5.47;;;19.30;99.90;;;;;;4941098;28;20234;-76
2023/09/08 03:15:31;;;;;;;5.77;5.27;;;19.30;99.90;;;;;;4945191;28;21115;-76
2023/09/08 03:17:59;;;;;;;7.90;5.73;;;19.20;99.90;;;;;;4949939;28;20493;-75
2023/09/08 03:20:28;;;;;;;5.97;5.40;;;19.20;99.90;;;;;;4963297;28;20466;-75
2023/09/08 03:22:55;;;;;;;9.93;5.80;;;19.00;99.90;;;;;;4960820;28;20234;-76
2023/09/08 03:25:21;;;;;;;9.40;7.70;;;19.00;99.90;;;;;;4937790;28;20512;-76
2023/09/08 03:27:46;;;;;;;5.53;4.97;;;19.10;99.90;;;;;;4963948;28;20235;-76
2023/09/08 03:30:13;;;;;;;5.30;4.80;;;19.10;99.90;;;;;;4928341;28;20237;-76
2023/09/08 03:32:38;;;;;;;6.10;5.50;;;19.10;99.90;;;;;;4950435;28;20233;-74
2023/09/08 03:35:09;;;;;;;9.07;5.60;;;19.10;99.90;;;;;;4943621;28;20479;-75
2023/09/08 03:37:35;;;;;;;9.10;5.17;;;19.10;99.90;;;;;;4948017;28;20479;-76
2023/09/08 03:40:01;;;;;;;6.30;5.70;;;19.10;99.90;;;;;;4948649;28;20504;-76
2023/09/08 03:42:27;;;;;;;5.93;5.30;;;19.10;99.90;;;;;;4948952;28;20474;-76
2023/09/08 03:44:52;;;;;;;6.83;5.80;;;19.10;99.90;;;;;;4944006;28;21022;-75
2023/09/08 03:47:18;;;;;;;7.10;5.40;;;19.10;99.90;;;;;;4943713;28;20795;-76
2023/09/08 03:49:44;;;;;;;6.63;5.30;;;19.10;99.90;;;;;;4963452;28;20234;-76
2023/09/08 03:52:09;;;;;;;5.73;5.17;;;19.10;99.90;;;;;;4941391;28;20226;-75
2023/09/08 03:54:35;;;;;;;5.67;5.03;;;19.10;99.90;;;;;;4934740;28;20266;-76
2023/09/08 03:57:01;;;;;;;6.07;5.37;;;19.10;99.90;;;;;;4961766;28;20235;-76
2023/09/08 03:59:27;;;;;;;6.90;5.37;;;19.00;99.90;;;;;;4927685;28;21137;-76
2023/09/08 04:01:52;;;;;;;8.40;5.23;;;19.00;99.90;;;;;;4942594;28;20246;-75
2023/09/08 04:04:19;;;;;;;6.10;5.40;;;19.00;99.90;;;;;;4964072;28;20341;-75
2023/09/08 04:06:45;;;;;;;5.70;4.83;;;18.90;99.90;;;;;;4947985;28;20312;-76
2023/09/08 04:09:11;;;;;;;5.63;5.03;;;18.90;99.90;;;;;;4945697;28;20473;-75
2023/09/08 04:11:37;;;;;;;7.23;5.07;;;18.90;99.90;;;;;;4962695;28;20251;-77
2023/09/08 04:14:03;;;;;;;7.50;5.20;;;19.00;99.90;;;;;;4949623;28;20230;-74
2023/09/08 04:16:29;;;;;;;5.53;4.80;;;18.90;99.90;;;;;;4929624;28;20543;-76
2023/09/08 04:18:54;;;;;;;6.20;5.43;;;18.90;99.90;;;;;;4957670;28;20284;-76
2023/09/08 04:21:20;;;;;;;5.33;4.83;;;18.80;99.90;;;;;;4953850;28;20787;-77
2023/09/08 04:23:46;;;;;;;5.87;5.30;;;18.80;99.90;;;;;;4950000;28;20314;-77
2023/09/08 04:26:13;;;;;;;7.10;5.67;;;18.80;99.90;;;;;;4955339;28;20222;-75
2023/09/08 04:28:38;;;;;;;5.07;4.67;;;18.80;99.90;;;;;;4953451;28;20211;-76
2023/09/08 04:31:04;;;;;;;6.83;5.70;;;18.80;99.90;;;;;;4948549;28;20458;-76
2023/09/08 04:33:30;;;;;;;9.33;5.87;;;18.80;99.90;;;;;;4946665;28;20222;-76
2023/09/08 04:35:56;;;;;;;6.30;4.90;;;18.70;99.90;;;;;;4963024;28;20243;-76
2023/09/08 04:38:22;;;;;;;6.30;5.57;;;18.70;99.90;;;;;;4929228;28;20814;-74
2023/09/08 04:40:48;;;;;;;6.77;5.37;;;18.70;99.90;;;;;;4960860;28;20846;-76
2023/09/08 04:43:14;;;;;;;7.93;6.33;;;18.70;99.90;;;;;;4947356;28;20226;-76
2023/09/08 04:45:40;;;;;;;8.23;5.80;;;18.60;99.90;;;;;;4944653;28;20536;-76
2023/09/08 04:48:06;;;;;;;5.60;5.10;;;18.60;99.90;;;;;;4965889;28;20590;-75
2023/09/08 04:50:32;;;;;;;7.63;5.80;;;18.60;99.90;;;;;;4949632;28;20804;-76
2023/09/08 04:52:58;;;;;;;5.83;5.30;;;18.60;99.90;;;;;;4947865;28;20227;-76
2023/09/08 04:55:25;;;;;;;7.43;5.90;;;18.60;99.90;;;;;;4964560;28;21023;-77
2023/09/08 04:57:51;;;;;;;9.00;6.07;;;18.60;99.90;;;;;;4946782;28;20476;-76
2023/09/08 05:00:17;;;;;;;6.83;5.83;;;18.60;99.90;;;;;;4931652;28;20230;-75
2023/09/08 05:02:44;;;;;;;6.90;5.17;;;18.50;99.90;;;;;;4948087;28;20227;-76
2023/09/08 05:05:10;;;;;;;11.73;7.13;;;18.50;99.90;;;;;;4945319;28;20579;-77
2023/09/08 05:07:35;;;;;;;5.07;4.60;;;18.50;99.90;;;;;;4963813;28;20470;-76
2023/09/08 05:10:01;;;;;;;5.90;5.27;;;18.40;99.90;;;;;;4926601;28;20245;-77
2023/09/08 05:12:30;;;;;;;6.07;5.47;;;18.40;99.90;;;;;;4946573;28;20223;-76
2023/09/08 05:15:00;;;;;;;6.30;5.70;;;18.40;99.90;;;;;;4926382;28;20488;-75
2023/09/08 05:17:26;;;;;;;7.10;5.50;;;18.50;99.90;;;;;;4945283;28;20798;-76
2023/09/08 05:19:51;;;;;;;7.53;5.87;;;18.50;99.90;;;;;;4964752;28;20739;-76
2023/09/08 05:22:17;;;;;;;6.70;5.67;;;18.50;99.90;;;;;;4963051;28;20709;-76
2023/09/08 05:24:43;;;;;;;6.93;5.30;;;18.40;99.90;;;;;;4949236;28;20891;-75
2023/09/08 05:27:09;;;;;;;5.43;4.93;;;18.40;99.90;;;;;;4948016;28;20222;-76
2023/09/08 05:29:35;;;;;;;6.20;5.60;;;18.50;99.90;;;;;;4946521;28;20215;-74
2023/09/08 05:32:00;;;;;;;7.30;6.20;;;18.40;99.90;;;;;;4948519;28;20477;-74
2023/09/08 05:34:26;;;;;;;6.80;6.10;;;18.40;99.90;;;;;;4954452;28;20303;-75
2023/09/08 05:36:52;;;;;;;10.17;5.77;;;18.40;99.90;;;;;;4936845;28;20341;-75
2023/09/08 05:39:19;;;;;;;6.20;5.60;;;18.40;99.90;;;;;;4919035;28;20251;-76
2023/09/08 05:41:45;;;;;;;8.00;5.00;;;18.40;99.90;;;;;;4919891;28;20218;-76
2023/09/08 05:44:11;;;;;;;7.40;6.53;;;18.50;99.90;;;;;;4906705;28;20971;-76
2023/09/08 05:46:37;;;;;;;8.03;5.43;;;18.50;99.90;;;;;;4919596;28;20470;-76
2023/09/08 05:49:02;;;;;;;6.80;5.80;;;18.50;99.90;;;;;;4935654;28;20218;-76
2023/09/08 05:51:30;;;;;;;21.70;6.13;;;18.50;99.90;;;;;;4935383;28;20304;-76
2023/09/08 05:53:56;;;;;;;8.37;5.77;;;18.40;99.90;;;;;;4935767;28;20878;-74
2023/09/08 05:56:24;;;;;;;10.20;5.70;;;18.40;99.90;;;;;;4903180;28;20564;-76
2023/09/08 05:58:50;;;;;;;7.17;5.47;;;18.50;99.90;;;;;;4919770;28;20234;-76
2023/09/08 06:01:16;;;;;;;9.67;6.37;;;18.40;99.90;;;;;;4916055;28;20477;-76
2023/09/08 06:03:42;;;;;;;7.43;5.70;;;18.50;99.90;;;;;;4934825;28;20218;-77
2023/09/08 06:06:08;;;;;;;8.23;6.10;;;18.50;99.90;;;;;;4935538;28;20471;-75
2023/09/08 06:08:33;;;;;;;7.87;5.73;;;18.50;99.90;;;;;;4927036;28;20738;-75
2023/09/08 06:10:59;;;;;;;7.80;5.53;;;18.40;99.90;;;;;;4960715;28;20705;-76
2023/09/08 06:13:26;;;;;;;8.73;6.80;;;18.50;99.90;;;;;;4948006;28;20225;-75
2023/09/08 06:15:52;;;;;;;11.10;6.10;;;18.50;99.90;;;;;;4944669;28;20481;-75
2023/09/08 06:18:18;;;;;;;9.17;5.40;;;18.50;99.90;;;;;;4946334;28;20521;-77
2023/09/08 06:20:47;;;;;;;5.53;5.03;;;18.50;99.90;;;;;;4947006;28;20229;-76
2023/09/08 06:23:14;;;;;;;7.67;5.60;;;18.50;99.90;;;;;;4956538;28;20484;-76
2023/09/08 06:25:40;;;;;;;6.83;5.93;;;18.50;99.90;;;;;;4928934;28;20485;-76
2023/09/08 06:28:06;;;;;;;6.40;5.10;;;18.60;99.90;;;;;;4935648;28;20474;-76
2023/09/08 06:30:33;;;;;;;8.00;6.00;;;18.60;99.90;;;;;;4946818;28;20505;-76
2023/09/08 06:32:59;;;;;;;6.80;5.53;;;18.60;99.90;;;;;;4930261;28;20485;-73
2023/09/08 06:35:26;;;;;;;6.47;5.60;;;18.70;99.90;;;;;;4948494;28;20246;-75
2023/09/08 06:37:53;;;;;;;8.10;5.30;;;18.70;99.90;;;;;;4951353;28;20482;-74
2023/09/08 06:40:19;;;;;;;7.03;5.80;;;18.80;99.90;;;;;;4948560;28;20469;-73
2023/09/08 06:42:45;;;;;;;7.27;6.00;;;18.80;99.90;;;;;;4928234;28;20477;-75
2023/09/08 06:45:18;;;;;;;7.80;5.97;;;18.90;99.90;;;;;;4933071;28;20485;-74
2023/09/08 06:47:44;;;;;;;6.60;5.60;;;18.90;99.90;;;;;;4944825;28;21126;-75
2023/09/08 06:50:10;;;;;;;6.03;5.40;;;19.00;99.90;;;;;;4936676;28;20231;-77
2023/09/08 06:52:36;;;;;;;6.00;5.40;;;19.00;99.90;;;;;;4927528;28;20222;-73
2023/09/08 06:55:02;;;;;;;9.23;6.10;;;19.10;99.90;;;;;;4919484;28;20264;-76
2023/09/08 06:57:28;;;;;;;8.10;6.37;;;19.20;99.90;;;;;;4935275;28;20570;-78
2023/09/08 06:59:54;;;;;;;8.13;6.57;;;19.30;99.90;;;;;;4901095;28;20482;-74
2023/09/08 07:02:20;;;;;;;9.00;7.53;;;19.30;99.90;;;;;;4924555;28;20233;-74
2023/09/08 07:04:46;;;;;;;7.77;6.97;;;19.40;99.90;;;;;;4946543;28;20465;-75
2023/09/08 07:07:12;;;;;;;8.83;6.80;;;19.40;99.90;;;;;;4930299;28;20223;-75
2023/09/08 07:09:40;;;;;;;7.17;6.47;;;19.40;99.90;;;;;;4944491;28;20370;-75
2023/09/08 07:12:06;;;;;;;6.57;5.97;;;19.50;99.90;;;;;;4944683;28;21328;-74
2023/09/08 07:14:32;;;;;;;9.47;8.53;;;19.60;99.90;;;;;;4959538;28;20220;-74
2023/09/08 07:16:58;;;;;;;8.20;6.40;;;19.60;99.90;;;;;;4946253;28;20553;-74
2023/09/08 07:19:27;;;;;;;6.67;6.00;;;19.70;99.90;;;;;;4945521;28;20477;-75
2023/09/08 07:21:53;;;;;;;7.03;6.37;;;19.80;99.90;;;;;;4947574;28;20482;-73
2023/09/08 07:24:20;;;;;;;6.83;6.13;;;19.80;99.90;;;;;;4947109;28;20477;-75
2023/09/08 07:26:45;;;;;;;7.23;6.40;;;19.90;99.90;;;;;;4946729;28;20569;-74
2023/09/08 07:29:12;;;;;;;6.93;6.23;;;20.00;99.90;;;;;;4946942;28;20229;-75
2023/09/08 07:31:38;;;;;;;6.67;6.00;;;20.00;99.90;;;;;;4943522;28;20466;-77
2023/09/08 07:34:04;;;;;;;6.33;5.77;;;20.10;99.90;;;;;;4959268;28;20223;-75
2023/09/08 07:36:30;;;;;;;9.60;8.40;;;20.30;99.90;;;;;;4924081;28;20470;-74
2023/09/08 07:38:56;;;;;;;7.90;6.33;;;20.40;99.90;;;;;;4945336;28;20473;-75
2023/09/08 07:41:21;;;;;;;7.00;6.30;;;20.40;99.90;;;;;;4943913;28;20220;-74
2023/09/08 07:43:47;;;;;;;7.60;6.77;;;20.50;99.90;;;;;;4944639;28;20230;-75
2023/09/08 07:46:16;;;;;;;6.77;5.40;;;20.60;99.90;;;;;;4938922;28;20673;-76
2023/09/08 07:48:42;;;;;;;7.90;6.57;;;20.70;99.90;;;;;;4948676;28;20505;-76
2023/09/08 07:51:07;;;;;;;6.73;6.03;;;20.80;99.90;;;;;;4918655;28;20226;-76
2023/09/08 07:53:33;;;;;;;6.30;5.73;;;20.90;99.90;;;;;;4917377;28;20217;-75
2023/09/08 07:55:58;;;;;;;6.20;5.53;;;21.00;99.90;;;;;;4918701;28;20781;-76
2023/09/08 07:58:24;;;;;;;6.60;5.90;;;21.10;99.90;;;;;;4945797;28;20348;-76
2023/09/08 08:00:50;;;;;;;7.07;6.37;;;21.20;99.90;;;;;;4963531;28;20234;-77
2023/09/08 08:03:15;;;;;;;7.93;6.87;;;21.30;99.90;;;;;;4946832;28;20975;-76
2023/09/08 08:05:41;;;;;;;6.90;6.20;;;21.50;99.90;;;;;;4947040;28;20752;-76
2023/09/08 08:08:09;;;;;;;6.63;6.03;;;21.60;99.90;;;;;;4962079;28;20218;-76
2023/09/08 08:10:35;;;;;;;6.27;5.70;;;21.70;99.90;;;;;;4946314;28;20641;-75
2023/09/08 08:13:00;;;;;;;7.60;6.40;;;21.80;99.90;;;;;;4926898;28;20485;-76
2023/09/08 08:15:37;;;;;;;7.90;6.00;;;21.80;99.90;;;;;;4944483;28;20353;-77
2023/09/08 08:18:05;;;;;;;6.87;6.17;;;22.00;99.90;;;;;;4946649;28;20906;-76
2023/09/08 08:20:34;;;;;;;6.40;5.80;;;22.10;99.90;;;;;;4929719;28;20481;-74
2023/09/08 08:23:01;;;;;;;10.87;5.90;;;22.20;99.90;;;;;;4930194;28;20469;-74
2023/09/08 08:25:26;;;;;;;7.23;6.57;;;22.30;99.90;;;;;;4942640;28;20524;-74
2023/09/08 08:27:52;;;;;;;6.17;5.57;;;22.40;99.90;;;;;;4926596;28;20515;-76
2023/09/08 08:30:18;;;;;;;7.90;5.90;;;22.70;99.90;;;;;;4949231;28;20233;-76
2023/09/08 08:32:43;;;;;;;7.07;6.40;;;22.80;99.90;;;;;;4965139;28;20872;-76
2023/09/08 08:35:09;;;;;;;7.87;6.37;;;22.80;99.90;;;;;;4957149;28;20331;-74
2023/09/08 08:37:35;;;;;;;6.13;5.53;;;22.80;99.90;;;;;;4948082;28;20225;-74
2023/09/08 08:40:02;;;;;;;7.47;6.60;;;22.80;99.90;;;;;;4949440;28;21151;-79
2023/09/08 08:42:32;;;;;;;6.23;5.63;;;22.90;99.90;;;;;;4964513;28;20265;-76
2023/09/08 08:44:58;;;;;;;8.63;5.50;;;23.10;99.90;;;;;;4950926;28;20597;-76
2023/09/08 08:47:25;;;;;;;6.67;6.00;;;23.30;99.90;;;;;;4964315;28;20481;-75
2023/09/08 08:49:52;;;;;;;9.40;5.60;;;23.40;99.90;;;;;;4941601;28;20547;-76
2023/09/08 08:52:19;;;;;;;6.83;6.20;;;23.50;99.90;;;;;;4961968;28;20477;-76
2023/09/08 08:54:48;;;;;;;11.20;6.83;;;23.60;99.90;;;;;;4933357;28;20449;-76
2023/09/08 08:57:14;;;;;;;7.43;6.73;;;23.50;99.90;;;;;;4942222;28;20950;-76
2023/09/08 08:59:43;;;;;;;7.00;6.40;;;23.50;99.90;;;;;;4956916;28;20481;-75
2023/09/08 09:02:11;;;;;;;6.30;5.70;;;23.60;99.90;;;;;;4956536;28;20484;-76
2023/09/08 09:04:37;;;;;;;6.77;5.93;;;23.70;99.90;;;;;;4956443;28;20571;-77
2023/09/08 09:07:05;;;;;;;6.83;5.90;;;23.80;99.90;;;;;;4959708;28;20488;-77
2023/09/08 09:09:31;;;;;;;6.77;6.07;;;23.90;99.90;;;;;;4939408;28;20556;-77
2023/09/08 09:11:56;;;;;;;9.23;6.23;;;24.10;99.90;;;;;;4945358;28;20995;-78
2023/09/08 09:14:23;;;;;;;6.90;6.20;;;24.20;99.90;;;;;;4942599;28;20245;-76
2023/09/08 09:16:48;;;;;;;6.20;5.60;;;24.20;99.90;;;;;;4943190;28;20234;-77
2023/09/08 09:19:29;;;;;;;5.90;5.40;;;24.40;99.90;;;;;;4933225;28;20837;-77
2023/09/08 09:21:57;;;;;;;6.17;5.67;;;24.60;99.90;;;;;;4918265;28;20932;-77
2023/09/08 09:24:33;;;;;;;6.43;5.83;;;24.60;99.90;;;;;;4906291;28;20504;-77
2023/09/08 09:27:04;;;;;;;10.17;8.33;;;24.80;99.90;;;;;;4916409;28;20487;-77
2023/09/08 09:29:30;;;;;;;7.33;5.33;;;24.80;99.90;;;;;;4911941;28;20469;-78
2023/09/08 09:32:07;;;;;;;7.20;6.30;;;24.90;99.90;;;;;;4917479;28;20473;-78
2023/09/08 09:34:34;;;;;;;6.10;5.43;;;25.10;99.90;;;;;;4911442;28;20226;-75
2023/09/08 09:37:00;;;;;;;8.33;6.03;;;25.30;99.90;;;;;;4931907;28;20469;-78
2023/09/08 09:39:27;;;;;;;6.90;5.80;;;25.30;99.90;;;;;;4920785;28;20465;-77
2023/09/08 09:41:57;;;;;;;8.87;5.67;;;25.70;99.90;;;;;;4931410;28;20808;-77
2023/09/08 09:44:23;;;;;;;7.00;5.70;;;25.70;99.90;;;;;;4920005;28;20476;-79
2023/09/08 09:46:52;;;;;;;7.67;6.10;;;25.80;99.90;;;;;;4938178;28;20473;-77
2023/09/08 09:49:18;;;;;;;9.10;6.43;;;26.00;99.90;;;;;;4915605;28;20472;-78
2023/09/08 09:51:46;;;;;;;6.40;5.80;;;26.00;99.90;;;;;;4943662;28;20840;-77
2023/09/08 09:54:13;;;;;;;7.03;5.50;;;25.90;99.90;;;;;;4921377;28;20472;-78
2023/09/08 09:56:40;;;;;;;7.07;6.37;;;25.80;99.90;;;;;;4935134;28;20476;-76
2023/09/08 09:59:11;;;;;;;6.23;5.63;;;25.80;99.90;;;;;;4939176;28;20566;-78
2023/09/08 10:01:38;;;;;;;8.17;5.80;;;26.00;99.90;;;;;;4910433;28;20504;-77
2023/09/08 10:04:04;;;;;;;6.60;6.10;;;26.30;99.90;;;;;;4921984;28;20474;-77
2023/09/08 10:06:33;;;;;;;6.23;5.63;;;26.50;99.90;;;;;;4920025;28;20572;-78
2023/09/08 10:09:04;;;;;;;6.73;6.03;;;26.50;99.90;;;;;;4939158;28;20548;-76
2023/09/08 10:11:38;;;;;;;6.47;5.87;;;26.50;99.90;;;;;;4919420;28;20484;-77
2023/09/08 10:14:07;;;;;;;6.10;5.60;;;26.50;99.90;;;;;;4937667;28;20473;-78
2023/09/08 10:16:36;;;;;;;6.77;6.17;;;26.60;99.90;;;;;;4935160;28;20469;-77
2023/09/08 10:19:07;;;;;;;6.30;5.70;;;26.60;99.90;;;;;;4936586;28;20462;-78
2023/09/08 10:21:39;;;;;;;9.33;6.43;;;26.90;99.90;;;;;;4919521;28;20489;-78
2023/09/08 10:24:23;;;;;;;7.10;6.40;;;27.00;99.90;;;;;;4922651;28;21304;-78
2023/09/08 10:26:58;;;;;;;8.30;6.97;;;26.90;99.90;;;;;;4936205;28;20465;-78
2023/09/08 10:29:26;;;;;;;7.60;6.90;;;27.00;99.90;;;;;;4930311;28;20485;-76
2023/09/08 10:31:52;;;;;;;8.60;6.67;;;27.10;99.90;;;;;;4922307;28;20222;-77
2023/09/08 10:34:18;;;;;;;6.10;5.60;;;27.30;99.90;;;;;;4921459;28;20472;-78
2023/09/08 10:36:44;;;;;;;7.33;6.17;;;27.30;99.90;;;;;;4934824;28;20225;-76
2023/09/08 10:39:31;;;;;;;7.00;6.30;;;27.10;99.90;;;;;;4910830;28;20229;-78
2023/09/08 10:42:21;;;;;;;6.63;6.03;;;27.20;99.90;;;;;;4918617;28;20397;-78
2023/09/08 10:44:52;;;;;;;6.40;5.80;;;27.00;99.90;;;;;;4927476;28;20825;-77
2023/09/08 10:47:53;;;;;;;7.63;6.57;;;27.30;99.90;;;;;;4935139;28;20476;-77
2023/09/08 10:50:26;;;;;;;6.40;5.80;;;27.50;99.90;;;;;;4914495;28;20251;-77
2023/09/08 10:53:07;;;;;;;6.63;6.03;;;27.80;99.90;;;;;;4921086;28;20909;-76
2023/09/08 10:55:42;;;;;;;7.50;6.47;;;28.10;99.90;;;;;;4922856;28;20236;-77
2023/09/08 10:58:11;;;;;;;6.90;6.25;;;28.20;99.90;;;;;;4920606;28;20237;-76
2023/09/08 11:00:50;;;;;;;6.95;6.20;;;28.40;99.90;;;;;;4933975;28;20234;-77
2023/09/08 11:03:37;;;;;;;6.70;6.10;;;28.40;99.90;;;;;;4919284;28;20226;-76
2023/09/08 11:06:06;;;;;;;6.65;6.00;;;28.60;99.90;;;;;;4919037;28;20425;-78
2023/09/08 11:08:43;;;;;;;6.50;5.90;;;28.80;99.90;;;;;;4920637;28;20284;-77
2023/09/08 11:11:13;;;;;;;6.55;5.90;;;29.00;99.90;;;;;;4951368;28;20252;-76
2023/09/08 11:13:39;;;;;;;7.20;6.50;;;28.80;99.90;;;;;;4907053;28;20226;-76
2023/09/08 11:16:06;;;;;;;6.45;5.95;;;28.70;99.90;;;;;;4947549;28;20234;-76
2023/09/08 11:18:35;;;;;;;6.60;5.82;;;28.70;99.90;;;;;;4941071;28;20738;-76
2023/09/08 11:21:03;;;;;;;6.82;6.10;;;28.90;99.90;;;;;;4919595;28;20291;-78
2023/09/08 11:23:29;;;;;;;6.13;5.63;;;29.10;99.90;;;;;;4917273;28;20225;-77
2023/09/08 11:25:55;;;;;;;6.15;5.72;;;29.40;99.90;;;;;;4934195;28;20273;-78
2023/09/08 11:28:22;;;;;;;6.03;5.53;;;29.50;99.90;;;;;;4925989;28;20221;-77
2023/09/08 11:30:49;;;;;;;6.38;5.85;;;29.60;99.60;;;;;;4917391;28;20274;-76
2023/09/08 11:33:19;;;;;;;5.60;5.20;;;29.70;99.70;;;;;;4917365;28;20233;-78
2023/09/08 11:35:47;;;;;;;5.95;5.45;;;29.60;99.30;;;;;;4920153;28;20246;-78
2023/09/08 11:38:14;;;;;;;5.60;5.10;;;29.70;99.40;;;;;;4934055;28;20292;-77
2023/09/08 11:40:40;;;;;;;6.15;5.55;;;29.80;99.00;;;;;;4918920;28;20226;-77
2023/09/08 11:43:07;;;;;;;6.38;5.78;;;29.60;99.00;;;;;;4919488;28;20364;-77
2023/09/08 11:45:36;;;;;;;6.38;5.97;;;29.70;99.50;;;;;;4918872;28;20476;-77
2023/09/08 11:48:04;;;;;;;6.80;6.10;;;29.80;99.40;;;;;;4903220;28;20230;-77
2023/09/08 11:50:30;;;;;;;6.70;6.10;;;29.60;98.70;;;;;;4932697;28;20214;-77
2023/09/08 11:52:58;;;;;;;6.65;6.15;;;29.60;99.10;;;;;;4918855;28;20943;-77
2023/09/08 11:55:25;;;;;;;8.10;5.55;;;29.60;98.40;;;;;;4932291;28;20230;-77
2023/09/08 11:58:02;;;;;;;6.72;6.15;;;29.70;99.30;;;;;;4918142;28;20896;-78
2023/09/08 12:00:29;;;;;;;5.80;5.32;;;29.80;98.70;;;;;;4917600;28;20232;-78
2023/09/08 12:02:55;;;;;;;6.32;5.72;;;29.80;98.50;;;;;;4934013;28;20329;-77
2023/09/08 12:05:25;;;;;;;5.78;5.28;;;29.60;98.80;;;;;;4926004;28;20292;-76
2023/09/08 12:07:53;;;;;;;6.32;5.72;;;29.50;98.80;;;;;;4933811;28;20349;-77
2023/09/08 12:10:18;;;;;;;5.82;5.35;;;29.50;98.60;;;;;;4913526;28;20225;-78
2023/09/08 12:12:46;;;;;;;6.65;5.75;;;29.60;98.70;;;;;;4916548;28;20264;-78
2023/09/08 12:15:28;;;;;;;7.28;6.65;;;29.70;98.60;;;;;;4917338;28;20923;-77
2023/09/08 12:17:54;;;;;;;6.15;5.57;;;29.90;98.60;;;;;;4919125;28;20221;-76
2023/09/08 12:20:20;;;;;;;5.78;5.28;;;30.30;98.90;;;;;;4934265;28;20214;-78
2023/09/08 12:22:50;;;;;;;6.65;6.10;;;30.50;98.30;;;;;;4932488;28;20222;-77
2023/09/08 12:25:15;;;;;;;6.60;6.00;;;30.40;98.00;;;;;;4920984;28;20324;-77
2023/09/08 12:27:42;;;;;;;6.78;6.18;;;30.60;97.90;;;;;;4918963;28;20230;-77
2023/09/08 12:30:09;;;;;;;6.18;5.68;;;30.70;98.20;;;;;;4928789;28;20724;-76
2023/09/08 12:32:36;;;;;;;5.80;5.30;;;30.50;97.60;;;;;;4931335;28;20286;-78
2023/09/08 12:35:04;;;;;;;6.22;5.63;;;30.30;97.40;;;;;;4930859;28;20232;-77
2023/09/08 12:37:32;;;;;;;6.55;6.05;;;30.50;98.00;;;;;;4931870;28;20990;-76
2023/09/08 12:40:00;;;;;;;6.43;5.82;;;30.90;97.30;;;;;;4916270;28;20232;-77
2023/09/08 12:42:29;;;;;;;7.38;5.18;;;31.00;97.40;;;;;;4926924;28;20233;-76
2023/09/08 12:44:55;;;;;;;5.28;4.85;;;31.00;97.60;;;;;;4904133;28;21087;-79
2023/09/08 12:47:20;;;;;;;6.10;5.60;;;31.20;97.10;;;;;;4934019;28;20215;-76